Time;durP1;ratioP1;P1;durP2;ratioP2;P2;SDS_P1;SDS_P2;PMS_P1;PMS_P2;Temp;Humidity;BMP_temperature;BMP_pressure;BME280_temperature;BME280_humidity;BME280_pressure;Samples;Min_cycle;Max_cycle;Signal;HPM_P1;HPM_P2
2023/10/30 00:00:17;;;;;;;;;;;;;;;12.51;91.32;99697.63;4195408;28;20429;-68
2023/10/30 00:02:19;;;;;;;;;;;;;;;12.49;91.56;99702.41;4211453;28;20027;-68
2023/10/30 00:04:26;;;;;;;;;;;;;;;12.54;91.01;99694.47;4194744;28;19963;-68
2023/10/30 00:06:29;;;;;;;;;;;;;;;12.55;90.87;99700.72;4195965;28;20376;-68
2023/10/30 00:08:31;;;;;;;;;;;;;;;12.55;90.99;99711.53;4196121;28;20023;-69
2023/10/30 00:10:36;;;;;;;;;;;;;;;12.56;90.79;99719.47;4196162;28;20011;-69
2023/10/30 00:12:38;;;;;;;;;;;;;;;12.55;90.69;99717.78;4194945;28;20418;-69
2023/10/30 00:14:40;;;;;;;;;;;;;;;12.54;90.64;99708.03;4211776;28;20410;-69
2023/10/30 00:16:42;;;;;;;;;;;;;;;12.57;90.11;99714.84;4194747;28;20019;-69
2023/10/30 00:18:45;;;;;;;;;;;;;;;12.55;90.27;99709.66;4194743;28;20016;-69
2023/10/30 00:20:47;;;;;;;;;;;;;;;12.58;90.08;99716.53;4194912;28;20015;-69
2023/10/30 00:22:49;;;;;;;;;;;;;;;12.55;89.94;99698.81;4196265;28;20509;-69
2023/10/30 00:24:51;;;;;;;;;;;;;;;12.55;89.93;99698.81;4191772;28;20019;-69
2023/10/30 00:26:55;;;;;;;;;;;;;;;12.57;89.70;99696.75;4195775;28;20470;-68
2023/10/30 00:28:57;;;;;;;;;;;;;;;12.58;89.67;99714.66;4195482;28;20015;-69
2023/10/30 00:30:59;;;;;;;;;;;;;;;12.57;89.39;99717.56;4194268;28;20015;-69
2023/10/30 00:33:01;;;;;;;;;;;;;;;12.56;89.55;99730.28;4202787;28;19928;-69
2023/10/30 00:35:03;;;;;;;;;;;;;;;12.55;89.59;99727.78;4195924;28;20545;-69
2023/10/30 00:37:05;;;;;;;;;;;;;;;12.52;89.29;99723.63;4194382;28;20446;-69
2023/10/30 00:39:07;;;;;;;;;;;;;;;12.52;89.68;99734.47;4195616;28;20026;-69
2023/10/30 00:41:10;;;;;;;;;;;;;;;12.54;89.30;99739.66;4194469;28;20008;-69
2023/10/30 00:43:14;;;;;;;;;;;;;;;12.54;89.29;99739.66;4194224;28;20039;-69
2023/10/30 00:45:17;;;;;;;;;;;;;;;12.53;89.38;99738.84;4193628;28;20019;-69
2023/10/30 00:47:18;;;;;;;;;;;;;;;12.51;89.37;99740.13;4194820;28;20023;-69
2023/10/30 00:49:21;;;;;;;;;;;;;;;12.53;89.24;99738.03;4194476;28;20062;-69
2023/10/30 00:51:23;;;;;;;;;;;;;;;12.51;89.17;99730.09;4194907;28;20037;-69
2023/10/30 00:53:25;;;;;;;;;;;;;;;12.50;89.13;99743.88;4194900;28;19924;-69
2023/10/30 00:55:26;;;;;;;;;;;;;;;12.49;89.03;99753.88;4195069;28;20007;-69
2023/10/30 00:57:29;;;;;;;;;;;;;;;12.47;89.01;99744.28;4194565;28;20027;-69
2023/10/30 00:59:32;;;;;;;;;;;;;;;12.47;89.02;99750.53;4194508;28;20461;-69
2023/10/30 01:01:34;;;;;;;;;;;;;;;12.48;88.75;99754.09;4192078;28;20011;-69
2023/10/30 01:03:37;;;;;;;;;;;;;;;12.48;88.80;99751.38;4194073;28;20017;-69
2023/10/30 01:05:39;;;;;;;;;;;;;;;12.49;88.84;99753.88;4194518;28;20011;-69
2023/10/30 01:07:41;;;;;;;;;;;;;;;12.48;88.75;99756.81;4193524;28;20625;-69
2023/10/30 01:09:44;;;;;;;;;;;;;;;12.45;88.97;99752.63;4194049;28;20019;-69
2023/10/30 01:11:46;;;;;;;;;;;;;;;12.46;88.83;99758.88;4193605;28;20015;-69
2023/10/30 01:13:48;;;;;;;;;;;;;;;12.46;88.64;99756.16;4193941;28;19924;-68
2023/10/30 01:15:53;;;;;;;;;;;;;;;12.44;88.63;99756.38;4194225;28;20007;-69
2023/10/30 01:17:55;;;;;;;;;;;;;;;12.42;88.62;99751.16;4193734;28;20019;-69
2023/10/30 01:19:56;;;;;;;;;;;;;;;12.46;88.56;99743.47;4193018;28;20011;-69
2023/10/30 01:21:59;;;;;;;;;;;;;;;12.47;88.64;99749.72;4194568;28;20019;-69
2023/10/30 01:24:01;;;;;;;;;;;;;;;12.46;88.19;99757.00;4194247;28;20023;-69
2023/10/30 01:26:04;;;;;;;;;;;;;;;12.44;88.50;99762.63;4194606;28;20011;-69
2023/10/30 01:28:06;;;;;;;;;;;;;;;12.42;88.18;99759.28;4210887;28;20397;-69
2023/10/30 01:30:08;;;;;;;;;;;;;;;12.40;88.21;99766.00;4194640;28;20671;-69
2023/10/30 01:32:12;;;;;;;;;;;;;;;12.42;88.17;99762.00;4192726;28;20019;-69
2023/10/30 01:34:14;;;;;;;;;;;;;;;12.47;88.08;99765.97;4209420;28;19924;-69
2023/10/30 01:36:16;;;;;;;;;;;;;;;12.47;88.10;99776.78;4193567;28;20008;-68
2023/10/30 01:38:18;;;;;;;;;;;;;;;12.45;87.89;99777.00;4193194;28;20019;-69
2023/10/30 01:40:20;;;;;;;;;;;;;;;12.45;87.89;99771.59;4193482;28;20022;-68
2023/10/30 01:42:22;;;;;;;;;;;;;;;12.46;87.91;99780.53;4193896;28;20058;-69
2023/10/30 01:44:24;;;;;;;;;;;;;;;12.43;87.83;99779.09;4195148;28;20456;-69
2023/10/30 01:46:26;;;;;;;;;;;;;;;12.43;87.82;99792.66;4210635;28;20461;-69
2023/10/30 01:48:30;;;;;;;;;;;;;;;12.43;87.97;99788.03;4193437;28;20015;-69
2023/10/30 01:50:32;;;;;;;;;;;;;;;12.41;87.79;99784.72;4194068;28;20043;-69
2023/10/30 01:52:35;;;;;;;;;;;;;;;12.42;87.86;99802.63;4193632;28;20027;-68
2023/10/30 01:54:37;;;;;;;;;;;;;;;12.40;87.72;99807.44;4193903;28;19925;-69
2023/10/30 01:56:39;;;;;;;;;;;;;;;12.40;87.89;99812.03;4193894;28;20047;-69
2023/10/30 01:58:41;;;;;;;;;;;;;;;12.40;87.91;99812.84;4194213;28;20015;-69
2023/10/30 02:00:44;;;;;;;;;;;;;;;12.40;87.82;99815.56;4192816;28;20378;-69
2023/10/30 02:02:46;;;;;;;;;;;;;;;12.39;87.88;99815.75;4192593;28;20007;-69
2023/10/30 02:04:49;;;;;;;;;;;;;;;12.39;87.67;99813.06;4193615;28;20023;-69
2023/10/30 02:06:51;;;;;;;;;;;;;;;12.38;87.58;99809.53;4194557;28;20087;-68
2023/10/30 02:08:53;;;;;;;;;;;;;;;12.39;87.51;99816.59;4188425;28;19928;-69
2023/10/30 02:10:55;;;;;;;;;;;;;;;12.37;87.59;99815.16;4193050;28;20394;-69
2023/10/30 02:12:58;;;;;;;;;;;;;;;12.39;87.51;99821.19;4193145;28;20017;-69
2023/10/30 02:15:00;;;;;;;;;;;;;;;12.37;87.38;99813.25;4194464;28;20446;-69
2023/10/30 02:17:01;;;;;;;;;;;;;;;12.37;87.47;99810.56;4193098;28;20043;-69
2023/10/30 02:19:02;;;;;;;;;;;;;;;12.38;87.49;99814.09;4193479;28;20063;-68
2023/10/30 02:21:06;;;;;;;;;;;;;;;12.37;87.59;99825.97;4193119;28;20019;-68
2023/10/30 02:23:08;;;;;;;;;;;;;;;12.37;87.43;99829.50;4193333;28;20795;-68
2023/10/30 02:25:10;;;;;;;;;;;;;;;12.38;87.47;99824.91;4192794;28;20026;-69
2023/10/30 02:27:14;;;;;;;;;;;;;;;12.38;87.40;99814.94;4194119;28;20018;-68
2023/10/30 02:29:16;;;;;;;;;;;;;;;12.35;87.32;99818.06;4193062;28;20019;-68
2023/10/30 02:31:18;;;;;;;;;;;;;;;12.37;87.57;99815.97;4192042;28;20065;-68
2023/10/30 02:33:20;;;;;;;;;;;;;;;12.37;87.38;99804.31;4193333;28;20003;-68
2023/10/30 02:35:22;;;;;;;;;;;;;;;12.39;87.57;99816.59;4209426;28;19928;-69
2023/10/30 02:37:24;;;;;;;;;;;;;;;12.37;87.42;99813.25;4192577;28;20030;-68
2023/10/30 02:39:32;;;;;;;;;;;;;;;12.38;87.44;99808.69;4209764;28;20603;-69
2023/10/30 02:41:33;;;;;;;;;;;;;;;12.40;87.55;99810.13;4193241;28;20024;-69
2023/10/30 02:43:36;;;;;;;;;;;;;;;12.41;87.33;99814.53;4190351;28;20043;-69
2023/10/30 02:45:38;;;;;;;;;;;;;;;12.41;87.49;99816.38;4209181;28;20023;-68
2023/10/30 02:47:41;;;;;;;;;;;;;;;12.44;87.42;99814.09;4207625;28;20022;-69
2023/10/30 02:49:41;;;;;;;;;;;;;;;12.44;87.22;99802.41;4193263;28;20383;-68
2023/10/30 02:51:44;;;;;;;;;;;;;;;12.44;87.35;99807.81;4193130;28;19967;-68
2023/10/30 02:53:46;;;;;;;;;;;;;;;12.43;87.21;99807.00;4193359;28;20011;-68
2023/10/30 02:55:48;;;;;;;;;;;;;;;12.40;87.20;99817.44;4190193;28;20059;-68
2023/10/30 02:57:50;;;;;;;;;;;;;;;12.40;87.03;99801.19;4190689;28;20082;-69
2023/10/30 02:59:53;;;;;;;;;;;;;;;12.41;87.34;99817.22;4192875;28;20373;-68
2023/10/30 03:01:55;;;;;;;;;;;;;;;12.41;87.09;99828.06;4190770;28;20015;-68
2023/10/30 03:03:57;;;;;;;;;;;;;;;12.42;87.05;99826.16;4192817;28;20011;-69
2023/10/30 03:05:59;;;;;;;;;;;;;;;12.41;87.28;99829.91;4193892;28;20015;-68
2023/10/30 03:08:02;;;;;;;;;;;;;;;12.39;86.99;99830.13;4193385;28;20031;-69
2023/10/30 03:10:04;;;;;;;;;;;;;;;12.39;87.10;99838.25;4193717;28;20484;-69
2023/10/30 03:12:05;;;;;;;;;;;;;;;12.40;86.99;99820.97;4193802;28;20469;-68
2023/10/30 03:14:07;;;;;;;;;;;;;;;12.40;87.00;99820.16;4193266;28;20011;-68
2023/10/30 03:16:10;;;;;;;;;;;;;;;12.39;86.89;99827.41;4192887;28;19932;-69
2023/10/30 03:18:15;;;;;;;;;;;;;;;12.38;87.11;99830.34;4193263;28;20007;-69
2023/10/30 03:20:18;;;;;;;;;;;;;;;12.38;87.24;99833.91;4192223;28;19924;-69
2023/10/30 03:22:20;;;;;;;;;;;;;;;12.37;87.16;99824.09;4192136;28;20047;-68
2023/10/30 03:24:21;;;;;;;;;;;;;;;12.37;86.96;99820.56;4192609;28;20379;-68
2023/10/30 03:26:25;;;;;;;;;;;;;;;12.36;86.90;99813.47;4193411;28;20016;-69
2023/10/30 03:28:27;;;;;;;;;;;;;;;12.35;87.06;99809.09;4193777;28;20111;-69
2023/10/30 03:30:29;;;;;;;;;;;;;;;12.35;87.15;99822.63;4193277;28;20019;-68
2023/10/30 03:32:32;;;;;;;;;;;;;;;12.34;87.10;99823.69;4195366;28;20011;-68
2023/10/30 03:34:34;;;;;;;;;;;;;;;12.33;87.01;99822.03;4203507;28;20027;-68
2023/10/30 03:36:36;;;;;;;;;;;;;;;12.33;86.96;99824.72;4195900;28;19925;-68
2023/10/30 03:38:38;;;;;;;;;;;;;;;12.32;87.04;99833.88;4197952;28;19960;-69
2023/10/30 03:40:40;;;;;;;;;;;;;;;12.32;87.19;99821.19;4198978;28;19966;-69
2023/10/30 03:42:42;;;;;;;;;;;;;;;12.32;87.21;99814.94;4198703;28;20025;-69
2023/10/30 03:44:45;;;;;;;;;;;;;;;12.32;87.02;99823.91;4197784;28;20127;-69
2023/10/30 03:46:47;;;;;;;;;;;;;;;12.31;87.29;99835.78;4197677;28;19963;-69
2023/10/30 03:48:50;;;;;;;;;;;;;;;12.33;87.08;99836.38;4198217;28;20019;-69
2023/10/30 03:50:53;;;;;;;;;;;;;;;12.32;87.17;99834.75;4197388;28;20369;-69
2023/10/30 03:52:55;;;;;;;;;;;;;;;12.31;87.30;99840.38;4196935;28;20015;-69
2023/10/30 03:55:03;;;;;;;;;;;;;;;12.29;87.34;99832.44;4196314;28;20018;-69
2023/10/30 03:57:06;;;;;;;;;;;;;;;12.27;87.25;99831.81;4196243;28;20215;-69
2023/10/30 03:59:08;;;;;;;;;;;;;;;12.26;87.18;99822.84;4196250;28;20019;-69
2023/10/30 04:01:10;;;;;;;;;;;;;;;12.24;87.32;99830.38;4193292;28;20035;-69
2023/10/30 04:03:12;;;;;;;;;;;;;;;12.26;87.53;99830.97;4196144;28;20020;-69
2023/10/30 04:05:16;;;;;;;;;;;;;;;12.25;87.54;99825.78;4196129;28;20023;-69
2023/10/30 04:07:18;;;;;;;;;;;;;;;12.24;87.22;99821.41;4195355;28;20079;-69
2023/10/30 04:09:20;;;;;;;;;;;;;;;12.24;87.16;99824.97;4195363;28;20028;-69
2023/10/30 04:11:22;;;;;;;;;;;;;;;12.24;87.33;99829.53;4195720;28;20098;-69
2023/10/30 04:13:24;;;;;;;;;;;;;;;12.23;87.29;99823.28;4195223;28;20027;-69
2023/10/30 04:15:25;;;;;;;;;;;;;;;12.23;87.26;99830.59;4195995;28;20038;-69
2023/10/30 04:17:27;;;;;;;;;;;;;;;12.23;87.40;99827.88;4195246;28;20019;-69
2023/10/30 04:19:29;;;;;;;;;;;;;;;12.22;87.53;99827.03;4196025;28;20023;-69
2023/10/30 04:21:33;;;;;;;;;;;;;;;12.25;87.36;99839.31;4195930;28;20007;-69
2023/10/30 04:23:36;;;;;;;;;;;;;;;12.24;87.32;99834.94;4195941;28;20035;-68
2023/10/30 04:25:38;;;;;;;;;;;;;;;12.24;87.45;99837.63;4195158;28;20019;-69
2023/10/30 04:27:40;;;;;;;;;;;;;;;12.24;87.53;99852.03;4195453;28;20036;-69
2023/10/30 04:29:44;;;;;;;;;;;;;;;12.25;87.22;99831.19;4194287;28;20003;-69
2023/10/30 04:31:46;;;;;;;;;;;;;;;12.23;87.44;99836.00;4193514;28;20027;-68
2023/10/30 04:33:49;;;;;;;;;;;;;;;12.22;87.38;99842.44;4193896;28;20035;-69
2023/10/30 04:35:53;;;;;;;;;;;;;;;12.20;87.48;99845.34;4195397;28;20019;-69
2023/10/30 04:37:56;;;;;;;;;;;;;;;12.22;87.47;99835.13;4195827;28;19935;-68
2023/10/30 04:39:58;;;;;;;;;;;;;;;12.22;87.65;99837.84;4195901;28;20028;-69
2023/10/30 04:42:00;;;;;;;;;;;;;;;12.21;87.68;99836.22;4193398;28;20024;-68
2023/10/30 04:44:06;;;;;;;;;;;;;;;12.20;87.55;99833.72;4194266;28;20030;-69
2023/10/30 04:46:08;;;;;;;;;;;;;;;12.20;87.51;99831.00;4194611;28;20015;-69
2023/10/30 04:48:10;;;;;;;;;;;;;;;12.19;87.66;99824.72;4194268;28;20028;-68
2023/10/30 04:50:12;;;;;;;;;;;;;;;12.19;87.78;99832.84;4195090;28;20012;-68
2023/10/30 04:52:14;;;;;;;;;;;;;;;12.18;87.63;99838.50;4195634;28;20015;-68
2023/10/30 04:54:17;;;;;;;;;;;;;;;12.18;87.88;99846.63;4194551;28;20359;-68
2023/10/30 04:56:19;;;;;;;;;;;;;;;12.17;87.87;99851.19;4191471;28;20036;-68
2023/10/30 04:58:21;;;;;;;;;;;;;;;12.16;88.10;99854.97;4194276;28;19929;-68
2023/10/30 05:00:23;;;;;;;;;;;;;;;12.16;88.01;99852.25;4192808;28;20011;-69
2023/10/30 05:02:25;;;;;;;;;;;;;;;12.15;88.17;99847.88;4193188;28;20019;-68
2023/10/30 05:04:29;;;;;;;;;;;;;;;12.16;88.20;99851.41;4192982;28;21468;-68
2023/10/30 05:06:31;;;;;;;;;;;;;;;12.15;88.02;99856.00;4194660;28;20043;-69
2023/10/30 05:08:33;;;;;;;;;;;;;;;12.16;88.25;99849.53;4194979;28;20019;-69
2023/10/30 05:10:37;;;;;;;;;;;;;;;12.14;88.07;99857.03;4194346;28;20310;-68
2023/10/30 05:12:39;;;;;;;;;;;;;;;12.15;88.42;99855.16;4193155;28;20019;-68
2023/10/30 05:14:41;;;;;;;;;;;;;;;12.15;88.29;99850.56;4195559;28;20023;-68
2023/10/30 05:16:43;;;;;;;;;;;;;;;12.15;88.33;99852.47;4194495;28;20059;-68
2023/10/30 05:18:45;;;;;;;;;;;;;;;12.14;88.53;99862.44;4193678;28;19963;-69
2023/10/30 05:20:47;;;;;;;;;;;;;;;12.15;88.32;99858.69;4194012;28;20023;-69
2023/10/30 05:22:49;;;;;;;;;;;;;;;12.14;88.63;99867.84;4195069;28;20047;-69
2023/10/30 05:24:51;;;;;;;;;;;;;;;12.15;88.54;99863.28;4194057;28;20246;-68
2023/10/30 05:26:54;;;;;;;;;;;;;;;12.14;88.76;99869.72;4194451;28;20020;-68
2023/10/30 05:28:56;;;;;;;;;;;;;;;12.15;88.71;99871.41;4194729;28;20011;-68
2023/10/30 05:30:58;;;;;;;;;;;;;;;12.15;88.67;99871.41;4192712;28;20102;-68
2023/10/30 05:32:59;;;;;;;;;;;;;;;12.15;88.82;99866.81;4193327;28;20112;-68
2023/10/30 05:35:04;;;;;;;;;;;;;;;12.14;88.73;99875.97;4195011;28;20047;-68
2023/10/30 05:37:09;;;;;;;;;;;;;;;12.13;88.81;99871.63;4192759;28;20035;-69
2023/10/30 05:39:11;;;;;;;;;;;;;;;12.13;88.58;99873.47;4193394;28;19932;-69
2023/10/30 05:41:13;;;;;;;;;;;;;;;12.12;88.81;99872.66;4194181;28;20018;-68
2023/10/30 05:43:16;;;;;;;;;;;;;;;12.11;89.05;99878.28;4194312;28;20011;-68
2023/10/30 05:45:18;;;;;;;;;;;;;;;12.12;88.98;99882.66;4194126;28;20019;-68
2023/10/30 05:47:20;;;;;;;;;;;;;;;12.10;89.21;99876.59;4193281;28;20031;-69
2023/10/30 05:49:22;;;;;;;;;;;;;;;12.10;89.16;99863.91;4193375;28;20015;-68
2023/10/30 05:51:24;;;;;;;;;;;;;;;12.08;89.17;99877.66;4192607;28;20035;-68
2023/10/30 05:53:26;;;;;;;;;;;;;;;12.09;89.08;99881.19;4193953;28;20331;-68
2023/10/30 05:55:28;;;;;;;;;;;;;;;12.07;89.47;99888.69;4191534;28;20003;-68
2023/10/30 05:57:31;;;;;;;;;;;;;;;12.07;89.32;99892.22;4193719;28;20020;-68
2023/10/30 05:59:34;;;;;;;;;;;;;;;12.07;89.38;99897.63;4193324;28;19928;-69
2023/10/30 06:01:36;;;;;;;;;;;;;;;12.08;89.47;99898.44;4189016;28;20015;-71
2023/10/30 06:03:38;;;;;;;;;;;;;;;12.08;89.26;99903.88;4191486;28;20019;-69
2023/10/30 06:05:39;;;;;;;;;;;;;;;12.07;89.62;99897.63;4193082;28;20027;-68
2023/10/30 06:07:42;;;;;;;;;;;;;;;12.07;89.59;99894.94;4193213;28;20620;-69
2023/10/30 06:09:45;;;;;;;;;;;;;;;12.06;89.63;99895.13;4193266;28;20343;-69
2023/10/30 06:11:47;;;;;;;;;;;;;;;12.05;89.78;99898.88;4193299;28;20046;-69
2023/10/30 06:13:49;;;;;;;;;;;;;;;12.05;89.72;99897.00;4192004;28;20015;-68
2023/10/30 06:15:54;;;;;;;;;;;;;;;12.04;89.77;99894.50;4192852;28;20039;-75
2023/10/30 06:17:56;;;;;;;;;;;;;;;12.06;89.65;99893.25;4193380;28;20015;-69
2023/10/30 06:19:58;;;;;;;;;;;;;;;12.05;89.52;99904.28;4192397;28;19924;-69
2023/10/30 06:22:00;;;;;;;;;;;;;;;12.06;89.59;99906.78;4193265;28;20023;-70
2023/10/30 06:24:02;;;;;;;;;;;;;;;12.07;89.73;99916.56;4193268;28;20019;-69
2023/10/30 06:26:08;;;;;;;;;;;;;;;12.07;89.59;99907.63;4192630;28;20015;-70
2023/10/30 06:28:12;;;;;;;;;;;;;;;12.08;89.68;99904.72;4191392;28;20028;-69
2023/10/30 06:30:14;;;;;;;;;;;;;;;12.08;89.50;99918.25;4191831;28;20019;-68
2023/10/30 06:32:17;;;;;;;;;;;;;;;12.07;89.56;99916.56;4191478;28;20464;-69
2023/10/30 06:34:19;;;;;;;;;;;;;;;12.08;89.69;99926.38;4193373;28;20011;-70
2023/10/30 06:36:21;;;;;;;;;;;;;;;12.10;89.51;99923.47;4193841;28;20402;-70
2023/10/30 06:38:23;;;;;;;;;;;;;;;12.08;89.52;99920.09;4191494;28;20051;-69
2023/10/30 06:40:25;;;;;;;;;;;;;;;12.08;89.63;99920.97;4194020;28;20407;-70
2023/10/30 06:42:27;;;;;;;;;;;;;;;12.07;89.61;99923.88;4193262;28;20027;-70
2023/10/30 06:44:30;;;;;;;;;;;;;;;12.06;89.97;99923.00;4193821;28;20047;-69
2023/10/30 06:46:32;;;;;;;;;;;;;;;12.06;89.79;99920.31;4192644;28;20023;-69
2023/10/30 06:48:34;;;;;;;;;;;;;;;12.08;89.72;99920.97;4193211;28;20369;-70
2023/10/30 06:50:38;;;;;;;;;;;;;;;12.10;89.56;99906.38;4190236;28;20035;-70
2023/10/30 06:52:40;;;;;;;;;;;;;;;12.08;89.71;99909.28;4192044;28;20015;-70
2023/10/30 06:54:42;;;;;;;;;;;;;;;12.09;89.74;99908.25;4191700;28;20015;-70
2023/10/30 06:56:44;;;;;;;;;;;;;;;12.08;89.89;99923.66;4191956;28;20035;-69
2023/10/30 06:58:46;;;;;;;;;;;;;;;12.10;89.73;99904.50;4193216;28;20042;-70
2023/10/30 07:00:48;;;;;;;;;;;;;;;12.09;89.95;99902.84;4192480;28;19936;-70
2023/10/30 07:02:50;;;;;;;;;;;;;;;12.10;89.92;99909.94;4191873;28;20065;-71
2023/10/30 07:04:53;;;;;;;;;;;;;;;12.12;89.50;99915.97;4192740;28;20393;-70
2023/10/30 07:06:55;;;;;;;;;;;;;;;12.13;89.61;99914.06;4195469;28;20119;-69
2023/10/30 07:08:57;;;;;;;;;;;;;;;12.13;89.93;99919.47;4196590;28;20024;-69
2023/10/30 07:10:59;;;;;;;;;;;;;;;12.14;89.72;99908.44;4196173;28;20020;-69
2023/10/30 07:13:01;;;;;;;;;;;;;;;12.14;89.72;99905.75;4196160;28;20046;-69
2023/10/30 07:15:04;;;;;;;;;;;;;;;12.12;89.65;99913.25;4195905;28;20024;-69
2023/10/30 07:17:05;;;;;;;;;;;;;;;12.12;89.81;99915.97;4194027;28;20509;-69
2023/10/30 07:19:06;;;;;;;;;;;;;;;12.13;89.81;99924.91;4194401;28;19978;-69
2023/10/30 07:21:10;;;;;;;;;;;;;;;12.14;89.79;99929.28;4194771;28;20513;-70
2023/10/30 07:23:12;;;;;;;;;;;;;;;12.12;90.13;99928.66;4195121;28;20068;-69
2023/10/30 07:25:14;;;;;;;;;;;;;;;12.13;89.92;99947.41;4195403;28;20454;-70
2023/10/30 07:27:16;;;;;;;;;;;;;;;12.13;90.10;99947.41;4194690;28;20007;-70
2023/10/30 07:29:18;;;;;;;;;;;;;;;12.14;89.87;99951.75;4195309;28;20042;-70
2023/10/30 07:31:20;;;;;;;;;;;;;;;12.15;89.93;99950.72;4194021;28;20027;-70
2023/10/30 07:33:22;;;;;;;;;;;;;;;12.17;89.75;99964.88;4196020;28;20027;-70
2023/10/30 07:35:27;;;;;;;;;;;;;;;12.18;89.91;99968.44;4195231;28;20039;-70
2023/10/30 07:37:30;;;;;;;;;;;;;;;12.19;89.58;99960.09;4192702;28;20008;-70
2023/10/30 07:39:33;;;;;;;;;;;;;;;12.19;89.78;99959.25;4193738;28;20011;-71
2023/10/30 07:41:35;;;;;;;;;;;;;;;12.21;89.77;99968.00;4194198;28;19924;-70
2023/10/30 07:43:37;;;;;;;;;;;;;;;12.21;89.61;99968.84;4195431;28;20019;-70
2023/10/30 07:45:40;;;;;;;;;;;;;;;12.23;89.63;99974.06;4195497;28;20023;-70
2023/10/30 07:47:44;;;;;;;;;;;;;;;12.25;89.59;99977.38;4194456;28;19928;-70
2023/10/30 07:49:49;;;;;;;;;;;;;;;12.26;89.16;99974.47;4194915;28;19962;-69
2023/10/30 07:51:51;;;;;;;;;;;;;;;12.29;89.12;99980.50;4195188;28;20008;-70
2023/10/30 07:53:54;;;;;;;;;;;;;;;12.29;88.92;99972.38;4195796;28;20011;-70
2023/10/30 07:55:56;;;;;;;;;;;;;;;12.31;88.95;99968.44;4195247;28;20027;-70
2023/10/30 07:57:58;;;;;;;;;;;;;;;12.31;88.92;99962.19;4193819;28;20356;-69
2023/10/30 08:00:00;;;;;;;;;;;;;;;12.31;89.09;99971.16;4194867;28;20427;-69
2023/10/30 08:02:03;;;;;;;;;;;;;;;12.33;89.03;99973.66;4193316;28;20377;-70
2023/10/30 08:04:06;;;;;;;;;;;;;;;12.33;88.95;99960.09;4195296;28;20023;-69
2023/10/30 08:06:08;;;;;;;;;;;;;;;12.35;88.99;99960.72;4194545;28;20019;-70
2023/10/30 08:08:10;;;;;;;;;;;;;;;12.35;88.56;99953.47;4195441;28;20015;-69
2023/10/30 08:10:14;;;;;;;;;;;;;;;12.37;88.65;99964.09;4195298;28;20027;-69
2023/10/30 08:12:16;;;;;;;;;;;;;;;12.38;88.59;99971.16;4195462;28;20039;-68
2023/10/30 08:14:18;;;;;;;;;;;;;;;12.39;88.72;99981.78;4195003;28;20391;-70
2023/10/30 08:16:20;;;;;;;;;;;;;;;12.41;88.56;99976.16;4192639;28;20020;-69
2023/10/30 08:18:22;;;;;;;;;;;;;;;12.41;88.37;99973.44;4193075;28;20031;-70
2023/10/30 08:20:24;;;;;;;;;;;;;;;12.43;88.46;99985.75;4193618;28;20019;-69
2023/10/30 08:22:26;;;;;;;;;;;;;;;12.45;88.25;99988.25;4187144;28;19936;-70
2023/10/30 08:24:28;;;;;;;;;;;;;;;12.48;88.15;99992.41;4193958;28;20015;-70
2023/10/30 08:26:32;;;;;;;;;;;;;;;12.48;87.92;99987.81;4192136;28;19995;-70
2023/10/30 08:28:35;;;;;;;;;;;;;;;12.49;87.98;99981.38;4195801;28;20485;-69
2023/10/30 08:30:40;;;;;;;;;;;;;;;12.51;87.94;99989.28;4192924;28;20532;-70
2023/10/30 08:32:43;;;;;;;;;;;;;;;12.52;87.91;99980.94;4192069;28;20082;-70
2023/10/30 08:34:44;;;;;;;;;;;;;;;12.54;88.05;99978.00;4192996;28;20028;-70
2023/10/30 08:36:46;;;;;;;;;;;;;;;12.56;87.91;99997.63;4193473;28;20036;-70
2023/10/30 08:38:48;;;;;;;;;;;;;;;12.58;87.69;99995.53;4193015;28;20373;-70
2023/10/30 08:40:50;;;;;;;;;;;;;;;12.58;87.56;99973.84;4192198;28;20028;-71
2023/10/30 08:42:56;;;;;;;;;;;;;;;12.59;87.62;99979.06;4192942;28;19955;-70
2023/10/30 08:45:07;;;;;;;;;;;;;;;12.60;87.45;99980.75;4192980;28;20014;-70
2023/10/30 08:47:08;;;;;;;;;;;;;;;12.62;87.69;99980.53;4193324;28;20017;-70
2023/10/30 08:49:10;;;;;;;;;;;;;;;12.64;87.28;99985.75;4195519;28;19933;-70
2023/10/30 08:51:12;;;;;;;;;;;;;;;12.64;87.23;99977.63;4193814;28;20007;-70
2023/10/30 08:53:15;;;;;;;;;;;;;;;12.65;87.35;99988.25;4193571;28;20035;-70
2023/10/30 08:55:17;;;;;;;;;;;;;;;12.67;87.01;99983.44;4191196;28;20019;-70
2023/10/30 08:57:19;;;;;;;;;;;;;;;12.68;87.35;99989.69;4193999;28;20019;-70
2023/10/30 08:59:24;;;;;;;;;;;;;;;12.70;87.00;100002.00;4193928;28;20007;-70
2023/10/30 09:01:26;;;;;;;;;;;;;;;12.71;87.23;100000.09;4190200;28;20019;-70
2023/10/30 09:03:28;;;;;;;;;;;;;;;12.71;86.80;99992.84;4193338;28;20015;-70
2023/10/30 09:05:30;;;;;;;;;;;;;;;12.74;86.94;99988.84;4194721;28;20505;-69
2023/10/30 09:07:32;;;;;;;;;;;;;;;12.73;86.91;99982.59;4194365;28;20019;-69
2023/10/30 09:09:33;;;;;;;;;;;;;;;12.75;86.85;99985.94;4192485;28;20876;-70
2023/10/30 09:11:35;;;;;;;;;;;;;;;12.75;86.89;99972.38;4194654;28;20023;-70
2023/10/30 09:13:37;;;;;;;;;;;;;;;12.78;86.74;99971.13;4194175;28;20001;-70
2023/10/30 09:15:40;;;;;;;;;;;;;;;12.79;86.75;99970.09;4194747;28;20763;-69
2023/10/30 09:17:42;;;;;;;;;;;;;;;12.79;86.59;99961.97;4192648;28;20574;-70
2023/10/30 09:19:44;;;;;;;;;;;;;;;12.80;86.55;99953.63;4193015;28;20481;-69
2023/10/30 09:21:46;;;;;;;;;;;;;;;12.81;86.81;99949.03;4185059;28;20622;-69
2023/10/30 09:23:48;;;;;;;;;;;;;;;12.83;86.64;99949.66;4194202;28;19929;-69
2023/10/30 09:25:55;;;;;;;;;;;;;;;12.87;86.55;99960.91;4195231;28;20019;-70
2023/10/30 09:27:59;;;;;;;;;;;;;;;12.89;86.65;99961.53;4196417;28;20024;-70
2023/10/30 09:30:01;;;;;;;;;;;;;;;12.90;86.76;99965.91;4195602;28;19956;-69
2023/10/30 09:32:07;;;;;;;;;;;;;;;12.91;86.66;99965.69;4194518;28;20003;-70
2023/10/30 09:34:09;;;;;;;;;;;;;;;12.92;86.61;99961.94;4194574;28;20438;-70
2023/10/30 09:36:11;;;;;;;;;;;;;;;12.93;86.57;99963.63;4195912;28;20011;-70
2023/10/30 09:38:12;;;;;;;;;;;;;;;12.95;86.42;99985.09;4195931;28;20051;-70
2023/10/30 09:40:14;;;;;;;;;;;;;;;12.96;86.74;99979.47;4195714;28;19963;-69
2023/10/30 09:42:16;;;;;;;;;;;;;;;12.98;86.58;99987.38;4194728;28;20055;-69
2023/10/30 09:44:18;;;;;;;;;;;;;;;12.98;86.45;99981.97;4187459;28;20604;-70
2023/10/30 09:46:20;;;;;;;;;;;;;;;12.95;86.51;99976.97;4194822;28;20059;-70
2023/10/30 09:48:24;;;;;;;;;;;;;;;12.99;86.13;99994.44;4195250;28;20600;-70
2023/10/30 09:50:26;;;;;;;;;;;;;;;13.01;86.19;99988.81;4194265;28;20016;-70
2023/10/30 09:52:28;;;;;;;;;;;;;;;13.02;86.46;99985.88;4195364;28;20035;-70
2023/10/30 09:54:30;;;;;;;;;;;;;;;13.01;86.26;99986.97;4194417;28;20023;-71
2023/10/30 09:56:32;;;;;;;;;;;;;;;13.01;86.14;99995.09;4194324;28;20019;-70
2023/10/30 09:58:35;;;;;;;;;;;;;;;13.03;85.99;99986.75;4194737;28;20007;-70
2023/10/30 10:00:37;;;;;;;;;;;;;;;13.04;85.91;99985.69;4194010;28;19925;-70
2023/10/30 10:02:39;;;;;;;;;;;;;;;13.05;85.93;99990.88;4193063;28;20039;-70
2023/10/30 10:04:42;;;;;;;;;;;;;;;13.06;86.17;99983.59;4192285;28;20019;-70
2023/10/30 10:06:43;;;;;;;;;;;;;;;13.07;85.90;99994.25;4194300;28;20357;-70
2023/10/30 10:08:46;;;;;;;;;;;;;;;13.10;86.01;100006.53;4189761;28;20023;-69
2023/10/30 10:10:53;;;;;;;;;;;;;;;13.13;86.26;99993.41;4192494;28;20023;-69
2023/10/30 10:12:57;;;;;;;;;;;;;;;13.14;86.12;99978.78;4194648;28;20016;-70
2023/10/30 10:14:59;;;;;;;;;;;;;;;13.15;86.25;99985.88;4194729;28;20466;-70
2023/10/30 10:17:02;;;;;;;;;;;;;;;13.19;86.07;99999.84;4195074;28;20455;-69
2023/10/30 10:19:15;;;;;;;;;;;;;;;13.23;85.83;99983.97;4194122;28;20032;-70
2023/10/30 10:21:21;;;;;;;;;;;;;;;13.26;85.83;99997.94;4209700;28;20015;-69
2023/10/30 10:23:22;;;;;;;;;;;;;;;13.27;86.05;100004.19;4195363;28;20020;-70
2023/10/30 10:25:24;;;;;;;;;;;;;;;13.30;85.84;100009.19;4194560;28;20695;-71
2023/10/30 10:27:26;;;;;;;;;;;;;;;13.31;85.62;100013.59;4194445;28;20557;-70
2023/10/30 10:29:29;;;;;;;;;;;;;;;13.33;85.85;100016.94;4194005;28;20015;-70
2023/10/30 10:31:31;;;;;;;;;;;;;;;13.36;85.60;100004.84;4193444;28;19929;-70
2023/10/30 10:33:32;;;;;;;;;;;;;;;13.36;85.60;99997.53;4194728;28;19924;-70
2023/10/30 10:35:39;;;;;;;;;;;;;;;13.39;85.51;100002.53;4192869;28;19979;-70